Time;durP1;ratioP1;P1;durP2;ratioP2;P2;SDS_P1;SDS_P2;PMS_P1;PMS_P2;Temp;Humidity;BMP_temperature;BMP_pressure;BME280_temperature;BME280_humidity;BME280_pressure;Samples;Min_cycle;Max_cycle;Signal;HPM_P1;HPM_P2
2022/12/07 00:01:17;;;;;;;;;;;;;;;7.82;70.96;100299.31;5108096;28;19920;-62
2022/12/07 00:03:46;;;;;;;;;;;;;;;7.83;70.33;100301.78;5091648;28;19931;-63
2022/12/07 00:06:15;;;;;;;;;;;;;;;7.80;70.02;100298.78;5086468;28;19927;-63
2022/12/07 00:08:42;;;;;;;;;;;;;;;7.84;70.51;100297.88;5103707;28;19947;-63
2022/12/07 00:11:10;;;;;;;;;;;;;;;7.79;70.49;100302.66;5096490;28;19920;-63
2022/12/07 00:13:37;;;;;;;;;;;;;;;7.91;69.81;100298.31;5096442;28;20379;-63
2022/12/07 00:16:05;;;;;;;;;;;;;;;7.76;71.23;100294.97;5096189;28;19920;-63
2022/12/07 00:18:32;;;;;;;;;;;;;;;7.78;71.07;100296.28;5096523;28;19920;-63
2022/12/07 00:21:05;;;;;;;;;;;;;;;7.93;71.13;100298.81;5098110;28;19935;-63
2022/12/07 00:23:32;;;;;;;;;;;;;;;7.93;70.96;100293.28;5116417;28;20364;-63
2022/12/07 00:26:04;;;;;;;;;;;;;;;8.06;69.91;100297.28;5116997;28;20364;-63
2022/12/07 00:28:30;;;;;;;;;;;;;;;8.14;68.88;100295.75;5116640;28;19920;-63
2022/12/07 00:31:00;;;;;;;;;;;;;;;8.19;69.23;100295.66;5116890;28;19919;-63
2022/12/07 00:33:28;;;;;;;;;;;;;;;8.21;69.59;100298.13;5116353;28;19920;-63
2022/12/07 00:35:56;;;;;;;;;;;;;;;8.26;69.25;100298.06;5113712;28;19920;-63
2022/12/07 00:38:24;;;;;;;;;;;;;;;8.14;68.81;100295.75;5096339;28;19927;-63
2022/12/07 00:40:55;;;;;;;;;;;;;;;8.23;68.58;100293.09;5095950;28;20372;-63
2022/12/07 00:43:21;;;;;;;;;;;;;;;8.27;69.40;100289.44;5096074;28;19924;-63
2022/12/07 00:45:48;;;;;;;;;;;;;;;8.22;69.22;100291.47;5095483;28;19920;-63
2022/12/07 00:48:15;;;;;;;;;;;;;;;8.11;69.15;100285.25;5096144;28;19920;-63
2022/12/07 00:50:42;;;;;;;;;;;;;;;8.11;68.24;100286.06;5104909;28;20287;-63
2022/12/07 00:53:09;;;;;;;;;;;;;;;8.18;68.72;100287.63;5115990;28;19920;-63
2022/12/07 00:55:38;;;;;;;;;;;;;;;8.18;69.38;100282.91;5115827;28;20284;-63
2022/12/07 00:58:05;;;;;;;;;;;;;;;8.22;69.51;100285.91;5100898;28;19927;-63
2022/12/07 01:00:32;;;;;;;;;;;;;;;8.29;68.24;100270.53;5114867;28;19923;-63
2022/12/07 01:02:59;;;;;;;;;;;;;;;8.33;68.62;100268.75;5115994;28;19926;-63
2022/12/07 01:05:26;;;;;;;;;;;;;;;8.32;67.69;100269.09;5113044;28;19919;-63
2022/12/07 01:07:53;;;;;;;;;;;;;;;8.33;69.08;100270.72;5116309;28;19990;-63
2022/12/07 01:10:20;;;;;;;;;;;;;;;8.39;68.71;100269.50;5113958;28;20283;-63
2022/12/07 01:12:48;;;;;;;;;;;;;;;8.43;67.92;100272.53;5115784;28;19919;-63
2022/12/07 01:15:15;;;;;;;;;;;;;;;8.43;68.53;100273.34;5115848;28;20284;-63
2022/12/07 01:17:42;;;;;;;;;;;;;;;8.34;68.13;100269.63;5115195;28;19920;-63
2022/12/07 01:20:10;;;;;;;;;;;;;;;8.41;68.62;100267.28;5113619;28;19926;-63
2022/12/07 01:22:37;;;;;;;;;;;;;;;8.42;68.51;100274.50;5113647;28;19919;-63
2022/12/07 01:25:05;;;;;;;;;;;;;;;8.32;67.70;100275.47;5115657;28;20296;-63
2022/12/07 01:27:32;;;;;;;;;;;;;;;8.39;68.44;100275.06;5114963;28;19927;-63
2022/12/07 01:30:01;;;;;;;;;;;;;;;8.39;68.08;100272.28;5115332;28;19942;-63
2022/12/07 01:32:28;;;;;;;;;;;;;;;8.32;67.98;100266.31;5115089;28;19926;-63
2022/12/07 01:34:55;;;;;;;;;;;;;;;8.36;67.77;100272.91;5113253;28;19927;-63
2022/12/07 01:37:22;;;;;;;;;;;;;;;8.34;67.90;100277.94;5102634;28;19924;-63
2022/12/07 01:39:52;;;;;;;;;;;;;;;8.37;68.78;100274.53;5094737;28;19924;-63
2022/12/07 01:42:19;;;;;;;;;;;;;;;8.25;68.16;100268.63;5094609;28;19920;-63
2022/12/07 01:45:04;;;;;;;;;;;;;;;8.17;69.05;100267.41;5094513;28;19920;-63
2022/12/07 01:47:32;;;;;;;;;;;;;;;8.27;68.81;100278.34;5096095;28;19919;-63
2022/12/07 01:49:59;;;;;;;;;;;;;;;8.29;68.69;100276.06;5115137;28;20299;-63
2022/12/07 01:52:28;;;;;;;;;;;;;;;8.25;67.85;100279.75;5114603;28;19920;-63
2022/12/07 01:54:58;;;;;;;;;;;;;;;8.33;68.41;100273.50;5115446;28;19927;-63
2022/12/07 01:57:25;;;;;;;;;;;;;;;8.25;68.11;100279.75;5112947;28;20284;-63
2022/12/07 01:59:52;;;;;;;;;;;;;;;8.33;69.03;100279.88;5108810;28;19923;-63
2022/12/07 02:02:20;;;;;;;;;;;;;;;8.27;69.21;100280.25;5112687;28;19920;-62
2022/12/07 02:04:50;;;;;;;;;;;;;;;8.34;69.42;100266.84;5113132;28;19920;-63
2022/12/07 02:07:17;;;;;;;;;;;;;;;8.36;68.17;100272.06;5114751;28;19920;-63
2022/12/07 02:09:44;;;;;;;;;;;;;;;8.34;68.73;100264.88;5111818;28;20284;-63
2022/12/07 02:12:11;;;;;;;;;;;;;;;8.34;68.17;100269.63;5114969;28;19927;-63
2022/12/07 02:14:38;;;;;;;;;;;;;;;8.32;68.96;100260.78;5114339;28;19926;-63
2022/12/07 02:17:08;;;;;;;;;;;;;;;8.36;68.47;100258.19;5112725;28;19927;-63
2022/12/07 02:19:54;;;;;;;;;;;;;;;8.32;68.40;100253.25;5114519;28;20403;-63
2022/12/07 02:22:34;;;;;;;;;;;;;;;8.34;68.26;100255.75;5114494;28;19941;-63
2022/12/07 02:25:07;;;;;;;;;;;;;;;8.36;68.11;100249.84;5114583;28;20292;-63
2022/12/07 02:27:46;;;;;;;;;;;;;;;8.33;68.70;100251.28;5114476;28;19919;-63
2022/12/07 02:30:15;;;;;;;;;;;;;;;8.39;67.79;100255.63;5113357;28;19920;-63
2022/12/07 02:32:45;;;;;;;;;;;;;;;8.38;69.25;100262.31;5112455;28;19968;-63
2022/12/07 02:35:13;;;;;;;;;;;;;;;8.43;68.09;100265.03;5114774;28;19931;-63
2022/12/07 02:37:43;;;;;;;;;;;;;;;8.43;68.41;100262.25;5097873;28;19942;-63
2022/12/07 02:40:13;;;;;;;;;;;;;;;8.44;68.74;100272.25;5094049;28;19920;-63
2022/12/07 02:42:43;;;;;;;;;;;;;;;8.39;68.00;100263.97;5093556;28;19920;-63
2022/12/07 02:45:18;;;;;;;;;;;;;;;8.36;68.70;100260.97;5095572;28;19923;-62
2022/12/07 02:47:47;;;;;;;;;;;;;;;8.42;67.81;100265.31;5113394;28;19926;-62
2022/12/07 02:50:14;;;;;;;;;;;;;;;8.46;67.72;100260.81;5106520;28;20395;-62
2022/12/07 02:52:41;;;;;;;;;;;;;;;8.52;67.25;100263.22;5088927;28;19920;-63
2022/12/07 02:55:09;;;;;;;;;;;;;;;8.54;67.19;100265.66;5089509;28;19943;-63
2022/12/07 02:57:46;;;;;;;;;;;;;;;8.51;68.32;100261.56;5089854;28;20365;-63
2022/12/07 03:00:15;;;;;;;;;;;;;;;8.51;67.18;100263.50;5086158;28;19927;-63
2022/12/07 03:02:50;;;;;;;;;;;;;;;8.57;67.71;100258.66;5088764;28;19921;-63
2022/12/07 03:05:27;;;;;;;;;;;;;;;8.53;66.46;100259.28;5090819;28;19920;-63
2022/12/07 03:08:00;;;;;;;;;;;;;;;8.55;66.35;100267.31;5087051;28;20399;-63
2022/12/07 03:10:31;;;;;;;;;;;;;;;8.56;66.13;100262.59;5092014;28;20285;-63
2022/12/07 03:13:03;;;;;;;;;;;;;;;8.57;66.77;100267.00;5086551;28;19920;-63
2022/12/07 03:15:32;;;;;;;;;;;;;;;8.59;67.46;100259.19;5090053;28;19927;-63
2022/12/07 03:18:02;;;;;;;;;;;;;;;8.44;67.06;100252.81;5086517;28;19920;-63
2022/12/07 03:20:30;;;;;;;;;;;;;;;8.48;66.40;100259.41;5092136;28;19920;-63
2022/12/07 03:22:58;;;;;;;;;;;;;;;8.40;67.21;100257.28;5086722;28;19927;-63
2022/12/07 03:25:26;;;;;;;;;;;;;;;8.44;67.36;100255.59;5091275;28;19927;-63
2022/12/07 03:27:55;;;;;;;;;;;;;;;8.43;66.14;100259.47;5086877;28;19927;-63
2022/12/07 03:30:24;;;;;;;;;;;;;;;8.43;66.56;100253.09;5089771;28;20392;-63
2022/12/07 03:32:53;;;;;;;;;;;;;;;8.33;67.18;100254.88;5087285;28;19921;-63
2022/12/07 03:35:24;;;;;;;;;;;;;;;8.31;67.49;100256.31;5090690;28;19920;-63
2022/12/07 03:37:54;;;;;;;;;;;;;;;8.14;66.33;100252.16;5076277;28;19920;-63
2022/12/07 03:40:24;;;;;;;;;;;;;;;8.20;66.40;100254.88;5072565;28;19920;-63
2022/12/07 03:42:52;;;;;;;;;;;;;;;8.30;66.14;100251.91;5070622;28;19921;-63
2022/12/07 03:45:20;;;;;;;;;;;;;;;8.29;66.04;100253.88;5090808;28;19920;-63
2022/12/07 03:47:49;;;;;;;;;;;;;;;8.23;66.56;100251.47;5087698;28;19927;-63
2022/12/07 03:50:19;;;;;;;;;;;;;;;8.21;65.77;100250.97;5089586;28;19943;-63
2022/12/07 03:52:49;;;;;;;;;;;;;;;8.14;65.94;100249.41;5087202;28;19927;-63
2022/12/07 03:55:19;;;;;;;;;;;;;;;8.20;66.72;100254.88;5090295;28;19943;-63
2022/12/07 03:57:48;;;;;;;;;;;;;;;8.19;65.65;100261.53;5084975;28;19920;-63
2022/12/07 04:00:15;;;;;;;;;;;;;;;8.14;66.32;100256.91;5087073;28;20403;-63
2022/12/07 04:02:42;;;;;;;;;;;;;;;8.11;67.09;100251.97;5088576;28;20358;-63
2022/12/07 04:05:10;;;;;;;;;;;;;;;8.05;66.38;100254.00;5088633;28;19920;-63
2022/12/07 04:07:36;;;;;;;;;;;;;;;8.10;65.89;100259.44;5088973;28;19920;-63
2022/12/07 04:10:05;;;;;;;;;;;;;;;8.06;65.95;100255.66;5088186;28;20265;-63
2022/12/07 04:12:32;;;;;;;;;;;;;;;8.04;66.95;100257.06;5084758;28;19927;-63
2022/12/07 04:14:59;;;;;;;;;;;;;;;8.06;66.86;100252.88;5073284;28;19931;-63
2022/12/07 04:17:26;;;;;;;;;;;;;;;7.94;66.35;100255.31;5068240;28;19920;-63
2022/12/07 04:19:53;;;;;;;;;;;;;;;7.84;66.00;100259.06;5065668;28;19931;-63
2022/12/07 04:22:20;;;;;;;;;;;;;;;7.87;67.11;100257.63;5072302;28;19927;-63
2022/12/07 04:24:47;;;;;;;;;;;;;;;7.88;66.53;100254.56;5071906;28;20304;-62
2022/12/07 04:27:15;;;;;;;;;;;;;;;7.76;66.64;100250.59;5072215;28;19927;-63
2022/12/07 04:29:42;;;;;;;;;;;;;;;7.71;66.02;100255.09;5067247;28;19927;-62
2022/12/07 04:32:09;;;;;;;;;;;;;;;7.63;67.10;100253.00;5063581;28;19921;-63
2022/12/07 04:34:36;;;;;;;;;;;;;;;7.63;66.61;100257.72;5071341;28;20030;-63
2022/12/07 04:37:03;;;;;;;;;;;;;;;7.51;67.74;100247.06;5071218;28;19931;-63
2022/12/07 04:39:31;;;;;;;;;;;;;;;7.59;67.68;100251.94;5072302;28;19927;-63
2022/12/07 04:41:58;;;;;;;;;;;;;;;7.63;67.00;100244.69;5064425;28;19920;-63
2022/12/07 04:44:27;;;;;;;;;;;;;;;7.57;66.61;100251.41;5072666;28;20387;-63
2022/12/07 04:46:55;;;;;;;;;;;;;;;7.63;67.00;100247.47;5068930;28;19920;-63
2022/12/07 04:49:22;;;;;;;;;;;;;;;7.61;67.71;100255.25;5063982;28;19920;-63
2022/12/07 04:51:49;;;;;;;;;;;;;;;7.47;67.08;100249.63;5069833;28;20300;-63
2022/12/07 04:54:16;;;;;;;;;;;;;;;7.58;67.17;100253.09;5089092;28;20277;-63
2022/12/07 04:56:43;;;;;;;;;;;;;;;7.62;67.92;100240.28;5092056;28;19930;-63
2022/12/07 04:59:11;;;;;;;;;;;;;;;7.58;67.45;100249.47;5107528;28;20336;-63
2022/12/07 05:01:40;;;;;;;;;;;;;;;7.67;67.54;100248.50;5099485;28;19927;-63
2022/12/07 05:04:07;;;;;;;;;;;;;;;7.58;66.79;100252.25;5091830;28;19928;-63
2022/12/07 05:06:34;;;;;;;;;;;;;;;7.59;67.55;100235.31;5095408;28;20371;-63
2022/12/07 05:09:01;;;;;;;;;;;;;;;7.59;67.61;100243.63;5095981;28;19927;-63
2022/12/07 05:11:40;;;;;;;;;;;;;;;7.59;66.85;100231.72;5087877;28;19928;-62
2022/12/07 05:14:08;;;;;;;;;;;;;;;7.66;67.46;100241.28;5099799;28;19934;-63
2022/12/07 05:16:36;;;;;;;;;;;;;;;7.62;67.23;100239.44;5103007;28;19920;-62
2022/12/07 05:19:04;;;;;;;;;;;;;;;7.65;66.37;100250.75;5082033;28;19931;-62
2022/12/07 05:21:31;;;;;;;;;;;;;;;7.71;67.48;100238.47;5095662;28;19983;-63
2022/12/07 05:23:58;;;;;;;;;;;;;;;7.72;66.23;100239.28;5084909;28;19927;-63
2022/12/07 05:26:25;;;;;;;;;;;;;;;7.69;66.77;100240.72;5109547;28;20260;-63
2022/12/07 05:28:52;;;;;;;;;;;;;;;7.72;66.48;100240.09;5106843;28;19931;-63
2022/12/07 05:31:19;;;;;;;;;;;;;;;7.70;66.67;100245.13;5115914;28;19927;-63
2022/12/07 05:33:46;;;;;;;;;;;;;;;7.75;65.86;100238.69;5106970;28;20276;-63
2022/12/07 05:36:15;;;;;;;;;;;;;;;7.78;66.88;100245.56;5112864;28;19928;-62
2022/12/07 05:38:42;;;;;;;;;;;;;;;7.78;66.56;100245.56;5095224;28;19920;-63
2022/12/07 05:42:11;;;;;;;;;;;;;;;7.81;67.26;100239.41;5100416;28;19920;-63
2022/12/07 05:43:58;;;;;;;;;;;;;;;7.73;67.00;100233.44;5106577;28;19926;-63
2022/12/07 05:46:25;;;;;;;;;;;;;;;7.71;66.93;100232.91;5115635;28;19920;-63
2022/12/07 05:48:52;;;;;;;;;;;;;;;7.75;66.56;100232.31;5096942;28;20314;-63
2022/12/07 05:51:20;;;;;;;;;;;;;;;7.78;66.68;100235.31;5115232;28;19927;-62
2022/12/07 05:53:47;;;;;;;;;;;;;;;7.69;67.14;100232.41;5114813;28;20001;-62
2022/12/07 05:56:14;;;;;;;;;;;;;;;7.67;66.52;100229.09;5112360;28;19931;-63
2022/12/07 06:01:25;;;;;;;;;;;;;;;7.71;67.24;100230.16;5111010;28;19920;-63
2022/12/07 06:03:52;;;;;;;;;;;;;;;7.66;67.36;100230.19;5085189;28;19920;-63
2022/12/07 06:06:20;;;;;;;;;;;;;;;7.72;67.25;100242.88;5095941;28;19927;-63
2022/12/07 06:08:47;;;;;;;;;;;;;;;7.61;67.47;100227.53;5085916;28;19927;-63
2022/12/07 06:13:58;;;;;;;;;;;;;;;7.68;67.21;100236.28;5085529;28;19920;-63
2022/12/07 06:16:25;;;;;;;;;;;;;;;7.66;66.39;100234.94;5092704;28;19920;-63
2022/12/07 06:18:52;;;;;;;;;;;;;;;7.65;67.51;100223.03;5092163;28;19926;-63
2022/12/07 06:21:20;;;;;;;;;;;;;;;7.70;67.20;100225.72;5082834;28;19920;-63
2022/12/07 06:23:47;;;;;;;;;;;;;;;7.73;67.12;100236.22;5094088;28;19929;-61
2022/12/07 06:26:14;;;;;;;;;;;;;;;7.64;66.01;100231.63;5093689;28;19931;-62
2022/12/07 06:28:41;;;;;;;;;;;;;;;7.60;67.52;100231.44;5086131;28;20288;-62
2022/12/07 06:31:09;;;;;;;;;;;;;;;7.65;67.25;100236.88;5094521;28;19927;-63
2022/12/07 06:33:36;;;;;;;;;;;;;;;7.60;66.72;100247.22;5093783;28;19920;-63
2022/12/07 06:36:02;;;;;;;;;;;;;;;7.64;67.24;100251.88;5090924;28;20312;-63
2022/12/07 06:38:31;;;;;;;;;;;;;;;7.62;65.88;100248.59;5092536;28;19920;-63
2022/12/07 06:40:58;;;;;;;;;;;;;;;7.61;67.39;100248.88;5093462;28;19920;-63
2022/12/07 06:43:25;;;;;;;;;;;;;;;7.58;67.54;100236.47;5085175;28;19932;-62
2022/12/07 06:45:52;;;;;;;;;;;;;;;7.41;67.66;100236.13;5093132;28;19927;-63
2022/12/07 06:48:19;;;;;;;;;;;;;;;7.48;67.38;100250.47;5085528;28;19920;-63
2022/12/07 06:50:46;;;;;;;;;;;;;;;7.58;66.75;100242.00;5100262;28;19927;-63
2022/12/07 06:53:13;;;;;;;;;;;;;;;7.63;66.18;100252.19;5113844;28;19919;-63
2022/12/07 06:55:41;;;;;;;;;;;;;;;7.53;66.89;100253.97;5099168;28;20262;-63
2022/12/07 06:58:08;;;;;;;;;;;;;;;7.65;66.24;100252.72;5085561;28;19924;-63
2022/12/07 07:00:35;;;;;;;;;;;;;;;7.57;66.88;100245.06;5093279;28;20300;-63
2022/12/07 07:03:02;;;;;;;;;;;;;;;7.49;67.67;100241.00;5085829;28;19920;-63
2022/12/07 07:05:29;;;;;;;;;;;;;;;7.55;66.83;100248.13;5089728;28;19920;-63
2022/12/07 07:07:56;;;;;;;;;;;;;;;7.62;67.69;100243.06;5084866;28;19921;-63
2022/12/07 07:10:23;;;;;;;;;;;;;;;7.73;67.89;100258.38;5091033;28;20284;-63
2022/12/07 07:12:51;;;;;;;;;;;;;;;7.86;67.00;100247.66;5085384;28;19920;-63
2022/12/07 07:15:18;;;;;;;;;;;;;;;7.69;66.09;100257.34;5091761;28;19920;-62
2022/12/07 07:17:45;;;;;;;;;;;;;;;7.83;66.82;100251.03;5092698;28;19924;-62
2022/12/07 07:20:12;;;;;;;;;;;;;;;7.84;66.06;100247.97;5088881;28;20321;-63
2022/12/07 07:22:39;;;;;;;;;;;;;;;7.81;66.14;100253.28;5102606;28;20305;-63
2022/12/07 07:25:06;;;;;;;;;;;;;;;7.80;66.06;100258.00;5107739;28;19919;-63
2022/12/07 07:27:33;;;;;;;;;;;;;;;7.68;66.53;100255.69;5110246;28;20284;-63
2022/12/07 07:30:02;;;;;;;;;;;;;;;7.65;65.30;100264.59;5107769;28;19919;-63
2022/12/07 07:32:29;;;;;;;;;;;;;;;7.61;65.75;100259.97;5110886;28;19920;-63
2022/12/07 07:34:55;;;;;;;;;;;;;;;7.67;65.84;100265.13;5103687;28;19919;-63
2022/12/07 07:37:22;;;;;;;;;;;;;;;7.58;66.48;100266.94;5097786;28;19920;-63
2022/12/07 07:39:49;;;;;;;;;;;;;;;7.63;66.38;100264.09;5106721;28;19945;-63
2022/12/07 07:42:16;;;;;;;;;;;;;;;7.67;66.60;100265.13;5112276;28;19919;-63
2022/12/07 07:44:43;;;;;;;;;;;;;;;7.62;66.06;100258.84;5105679;28;19920;-63
2022/12/07 07:47:12;;;;;;;;;;;;;;;7.46;66.73;100259.06;5112749;28;19920;-63
2022/12/07 07:49:38;;;;;;;;;;;;;;;7.42;66.71;100260.78;5109922;28;19920;-63
2022/12/07 07:52:06;;;;;;;;;;;;;;;7.41;66.17;100261.06;5111043;28;19926;-63
2022/12/07 07:54:33;;;;;;;;;;;;;;;7.50;67.06;100262.06;5113489;28;19926;-63
2022/12/07 07:57:00;;;;;;;;;;;;;;;7.57;65.79;100262.50;5113130;28;19926;-63
2022/12/07 07:59:27;;;;;;;;;;;;;;;7.60;66.71;100263.84;5104732;28;20265;-63
2022/12/07 08:01:54;;;;;;;;;;;;;;;7.63;65.04;100266.03;5110087;28;19926;-63
2022/12/07 08:04:22;;;;;;;;;;;;;;;7.57;65.35;100265.28;5084537;28;19928;-62
2022/12/07 08:06:49;;;;;;;;;;;;;;;7.36;65.51;100266.69;5113182;28;19919;-64
2022/12/07 08:09:16;;;;;;;;;;;;;;;7.60;65.64;100263.84;5090858;28;19924;-63
2022/12/07 08:11:43;;;;;;;;;;;;;;;7.67;65.35;100261.53;5082414;28;19935;-64
2022/12/07 08:14:11;;;;;;;;;;;;;;;7.81;65.84;100270.75;5085084;28;20417;-64
2022/12/07 08:16:38;;;;;;;;;;;;;;;7.80;65.44;100268.28;5083846;28;19931;-62
2022/12/07 08:19:05;;;;;;;;;;;;;;;7.73;65.24;100266.72;5084314;28;19928;-63
2022/12/07 08:21:33;;;;;;;;;;;;;;;7.80;64.91;100266.31;5081322;28;20423;-64
2022/12/07 08:24:00;;;;;;;;;;;;;;;7.87;65.22;100282.56;5075094;28;19920;-64
2022/12/07 08:26:27;;;;;;;;;;;;;;;7.98;64.13;100280.47;5085231;28;19928;-63
2022/12/07 08:28:54;;;;;;;;;;;;;;;7.99;64.14;100282.94;5079518;28;19935;-63
2022/12/07 08:31:21;;;;;;;;;;;;;;;8.05;64.46;100276.19;5088787;28;19935;-64
2022/12/07 08:33:48;;;;;;;;;;;;;;;8.18;63.79;100279.31;5080574;28;19924;-64
2022/12/07 08:36:15;;;;;;;;;;;;;;;8.28;62.92;100279.97;5090700;28;19930;-64
2022/12/07 08:38:44;;;;;;;;;;;;;;;8.30;64.03;100282.44;5080421;28;20265;-63
2022/12/07 08:41:11;;;;;;;;;;;;;;;8.50;63.64;100289.59;5088206;28;19930;-63
2022/12/07 08:43:38;;;;;;;;;;;;;;;8.68;61.84;100285.94;5078575;28;19927;-63
2022/12/07 08:46:07;;;;;;;;;;;;;;;8.95;61.51;100284.34;5085281;28;19928;-64
2022/12/07 08:48:35;;;;;;;;;;;;;;;9.65;58.78;100288.66;5078062;28;19927;-62
2022/12/07 08:51:03;;;;;;;;;;;;;;;9.43;59.54;100281.09;5089856;28;19924;-64
2022/12/07 08:53:30;;;;;;;;;;;;;;;9.43;59.84;100283.88;5084598;28;19920;-64
2022/12/07 08:55:59;;;;;;;;;;;;;;;9.20;60.14;100277.44;5087750;28;20274;-64
2022/12/07 08:58:26;;;;;;;;;;;;;;;9.09;60.14;100279.59;5089330;28;20391;-63
2022/12/07 09:00:53;;;;;;;;;;;;;;;9.16;60.53;100281.97;5087411;28;19920;-64
2022/12/07 09:03:19;;;;;;;;;;;;;;;9.18;59.33;100282.47;5079571;28;19920;-64
2022/12/07 09:05:46;;;;;;;;;;;;;;;9.27;60.22;100286.16;5090031;28;19924;-64
2022/12/07 09:08:13;;;;;;;;;;;;;;;9.28;59.19;100281.41;5082706;28;19927;-62
2022/12/07 09:10:40;;;;;;;;;;;;;;;9.22;59.25;100275.16;5088250;28;19927;-63
2022/12/07 09:13:09;;;;;;;;;;;;;;;9.25;59.27;100284.84;5082406;28;19932;-64
2022/12/07 09:15:35;;;;;;;;;;;;;;;9.35;59.29;100279.88;5085978;28;19931;-62
2022/12/07 09:18:02;;;;;;;;;;;;;;;9.56;59.25;100268.31;5080158;28;19920;-64
2022/12/07 09:20:29;;;;;;;;;;;;;;;9.65;58.72;100271.97;5084385;28;20368;-65
2022/12/07 09:22:56;;;;;;;;;;;;;;;9.65;58.57;100276.72;5081804;28;19929;-61
2022/12/07 09:25:23;;;;;;;;;;;;;;;9.63;59.17;100279.81;5076808;28;19935;-63
2022/12/07 09:27:55;;;;;;;;;;;;;;;9.59;59.52;100277.97;5084421;28;19920;-63
2022/12/07 09:30:24;;;;;;;;;;;;;;;9.35;59.24;100285.44;5086635;28;19947;-63
2022/12/07 09:32:51;;;;;;;;;;;;;;;9.47;59.37;100282.13;5081594;28;20293;-64
2022/12/07 09:35:17;;;;;;;;;;;;;;;9.42;58.90;100279.44;5083647;28;19931;-64
2022/12/07 09:37:44;;;;;;;;;;;;;;;9.44;58.80;100279.97;5088104;28;19924;-64
2022/12/07 09:40:12;;;;;;;;;;;;;;;9.32;59.47;100286.06;5086702;28;19928;-63
2022/12/07 09:42:40;;;;;;;;;;;;;;;9.30;60.06;100274.44;5089044;28;19927;-63
2022/12/07 09:45:12;;;;;;;;;;;;;;;9.16;59.97;100281.97;5085881;28;19947;-64
2022/12/07 09:47:41;;;;;;;;;;;;;;;9.20;60.05;100271.88;5083578;28;19920;-63
2022/12/07 09:50:13;;;;;;;;;;;;;;;9.34;59.50;100274.63;5083277;28;20281;-63
2022/12/07 09:52:40;;;;;;;;;;;;;;;9.44;58.40;100270.81;5086261;28;19920;-64
2022/12/07 09:55:11;;;;;;;;;;;;;;;9.72;59.03;100263.19;5086440;28;19919;-63
2022/12/07 09:57:38;;;;;;;;;;;;;;;9.84;58.38;100262.66;5088166;28;19924;-64
2022/12/07 10:00:08;;;;;;;;;;;;;;;10.01;58.03;100262.78;5089171;28;20300;-63
2022/12/07 10:02:36;;;;;;;;;;;;;;;10.09;57.42;100264.00;5080567;28;19920;-63
2022/12/07 10:05:06;;;;;;;;;;;;;;;9.79;57.45;100257.22;5082668;28;19949;-63
2022/12/07 10:07:33;;;;;;;;;;;;;;;9.93;58.59;100260.75;5080524;28;19921;-64
2022/12/07 10:10:02;;;;;;;;;;;;;;;9.97;57.69;100267.34;5081730;28;19924;-65
2022/12/07 10:12:29;;;;;;;;;;;;;;;10.03;57.76;100260.50;5084258;28;19920;-65
2022/12/07 10:14:57;;;;;;;;;;;;;;;10.02;57.49;100253.31;5079594;28;19938;-64
2022/12/07 10:17:31;;;;;;;;;;;;;;;9.93;58.18;100266.31;5085317;28;21027;-65
2022/12/07 10:20:13;;;;;;;;;;;;;;;9.82;58.36;100259.38;5080186;28;20408;-64
2022/12/07 10:22:54;;;;;;;;;;;;;;;9.65;57.59;100260.84;5079717;28;19927;-64
2022/12/07 10:25:22;;;;;;;;;;;;;;;9.67;57.17;100253.03;5082608;28;19943;-64
2022/12/07 10:27:58;;;;;;;;;;;;;;;9.80;57.24;100251.34;5083376;28;19928;-64
2022/12/07 10:30:25;;;;;;;;;;;;;;;9.99;57.18;100250.34;5086515;28;19927;-65
2022/12/07 10:32:52;;;;;;;;;;;;;;;10.14;56.79;100247.16;5081125;28;19920;-65
2022/12/07 10:35:22;;;;;;;;;;;;;;;10.32;57.25;100248.13;5083220;28;20399;-64
2022/12/07 10:37:51;;;;;;;;;;;;;;;10.47;56.27;100252.47;5080141;28;20402;-64
2022/12/07 10:40:34;;;;;;;;;;;;;;;10.45;56.32;100251.97;5081652;28;19927;-65
2022/12/07 10:43:02;;;;;;;;;;;;;;;10.18;56.78;100242.59;5082489;28;19931;-64
2022/12/07 10:45:29;;;;;;;;;;;;;;;10.31;57.02;100250.09;5085204;28;19920;-64
2022/12/07 10:48:00;;;;;;;;;;;;;;;10.33;56.34;100245.03;5079555;28;19929;-65
2022/12/07 10:50:45;;;;;;;;;;;;;;;10.56;56.29;100228.28;5086650;28;19935;-65
2022/12/07 10:53:26;;;;;;;;;;;;;;;10.93;55.36;100232.53;5084264;28;19924;-64
2022/12/07 10:56:11;;;;;;;;;;;;;;;10.99;54.48;100224.03;5085055;28;19928;-64
2022/12/07 10:58:47;;;;;;;;;;;;;;;11.39;54.11;100227.56;5083902;28;19920;-63
2022/12/07 11:01:22;;;;;;;;;;;;;;;11.32;53.76;100216.91;5078752;28;19950;-64
2022/12/07 11:04:07;;;;;;;;;;;;;;;11.06;54.02;100224.38;5071123;28;19926;-65
2022/12/07 11:06:36;;;;;;;;;;;;;;;11.02;54.27;100223.38;5080187;28;19946;-64
2022/12/07 11:09:17;;;;;;;;;;;;;;;10.97;53.95;100211.22;5077388;28;20375;-65
2022/12/07 11:11:49;;;;;;;;;;;;;;;10.80;54.00;100211.19;5082405;28;19923;-64
2022/12/07 11:14:23;;;;;;;;;;;;;;;11.02;53.70;100212.22;5066947;28;19931;-63
2022/12/07 11:16:56;;;;;;;;;;;;;;;10.90;54.12;100210.06;5088380;28;20365;-65
2022/12/07 11:19:50;;;;;;;;;;;;;;;10.90;54.19;100202.53;5072540;28;19932;-65
2022/12/07 11:22:20;;;;;;;;;;;;;;;10.90;54.55;100199.75;5081172;28;19931;-65
2022/12/07 11:24:56;;;;;;;;;;;;;;;10.84;54.78;100194.66;5077917;28;19923;-65
2022/12/07 11:27:27;;;;;;;;;;;;;;;10.51;54.77;100195.00;5082077;28;19924;-65
2022/12/07 11:30:03;;;;;;;;;;;;;;;10.59;54.84;100188.66;5077620;28;20342;-66
2022/12/07 11:32:42;;;;;;;;;;;;;;;10.47;55.48;100189.25;5074994;28;19927;-65
2022/12/07 11:35:12;;;;;;;;;;;;;;;10.60;55.16;100190.28;5075026;28;20292;-64
2022/12/07 11:37:40;;;;;;;;;;;;;;;10.69;54.65;100187.56;5077831;28;19920;-64
2022/12/07 11:40:16;;;;;;;;;;;;;;;10.44;55.19;100181.56;5072671;28;19933;-65
2022/12/07 11:42:45;;;;;;;;;;;;;;;10.68;54.74;100174.75;5079212;28;19982;-65
2022/12/07 11:45:15;;;;;;;;;;;;;;;10.88;54.34;100168.59;5081738;28;19927;-65
2022/12/07 11:47:46;;;;;;;;;;;;;;;10.77;54.82;100173.66;5088155;28;19929;-65
2022/12/07 11:50:19;;;;;;;;;;;;;;;10.78;54.65;100171.69;5073507;28;20296;-65
2022/12/07 11:52:49;;;;;;;;;;;;;;;10.75;54.91;100177.88;5084375;28;19928;-65
2022/12/07 11:55:22;;;;;;;;;;;;;;;10.81;54.33;100176.59;5067009;28;19928;-65
2022/12/07 11:57:51;;;;;;;;;;;;;;;10.82;54.50;100169.06;5071563;28;19920;-65
2022/12/07 12:00:19;;;;;;;;;;;;;;;10.56;54.76;100173.41;5075253;28;20471;-65
2022/12/07 12:02:49;;;;;;;;;;;;;;;10.68;54.67;100169.19;5071117;28;19921;-65
2022/12/07 12:05:18;;;;;;;;;;;;;;;10.18;56.00;100172.22;5074052;28;19943;-65
2022/12/07 12:07:47;;;;;;;;;;;;;;;10.41;55.41;100171.03;5071238;28;20002;-64
2022/12/07 12:10:18;;;;;;;;;;;;;;;10.47;55.84;100169.75;5069880;28;19927;-66
2022/12/07 12:12:53;;;;;;;;;;;;;;;10.49;55.28;100167.47;5076969;28;19920;-64
2022/12/07 12:15:27;;;;;;;;;;;;;;;10.51;55.16;100173.53;5067189;28;19920;-64
2022/12/07 12:18:15;;;;;;;;;;;;;;;10.35;56.00;100172.31;5067921;28;20369;-64
2022/12/07 12:20:44;;;;;;;;;;;;;;;10.26;56.18;100168.66;5057183;28;19934;-65
2022/12/07 12:23:14;;;;;;;;;;;;;;;10.12;56.84;100169.56;5068531;28;19920;-66
2022/12/07 12:25:43;;;;;;;;;;;;;;;9.91;56.89;100166.50;5070097;28;20513;-65
2022/12/07 12:28:21;;;;;;;;;;;;;;;9.92;57.24;100165.34;5067217;28;19935;-66
2022/12/07 12:31:04;;;;;;;;;;;;;;;9.76;56.90;100155.75;5066394;28;19924;-64
2022/12/07 12:33:32;;;;;;;;;;;;;;;9.82;58.16;100159.22;5069254;28;19920;-65
2022/12/07 12:36:15;;;;;;;;;;;;;;;9.98;57.37;100152.13;5070308;28;19925;-66
2022/12/07 12:38:51;;;;;;;;;;;;;;;10.10;56.92;100149.59;5070168;28;19928;-65
2022/12/07 12:41:37;;;;;;;;;;;;;;;10.12;57.12;100150.09;5068833;28;19920;-65
2022/12/07 12:44:27;;;;;;;;;;;;;;;10.22;56.61;100150.94;5066151;28;19920;-66
2022/12/07 12:46:55;;;;;;;;;;;;;;;10.27;56.35;100148.03;5067927;28;19925;-65
2022/12/07 12:49:44;;;;;;;;;;;;;;;10.16;56.68;100145.53;5068498;28;19924;-65
2022/12/07 12:52:29;;;;;;;;;;;;;;;10.16;56.98;100139.13;5069309;28;20369;-66
2022/12/07 12:55:00;;;;;;;;;;;;;;;10.06;57.12;100136.66;5083428;28;20392;-65
2022/12/07 12:57:28;;;;;;;;;;;;;;;10.06;56.62;100140.25;5091523;28;19920;-66
2022/12/07 12:59:59;;;;;;;;;;;;;;;10.04;57.19;100127.78;5086895;28;20038;-65
2022/12/07 13:02:28;;;;;;;;;;;;;;;10.09;56.72;100131.25;5087166;28;19924;-65